Terminal Aerodrome Forecast
Issued by NWS Grand Forks, ND

Home | Current Version | Previous Version | Graphics & Text | Print | Product List | Glossary On
Versions: 1 2 3 4 5 6 7 8 9 10 11 12 13 14 15 16
000
FTUS43 KFGF 140520
TAFGFK
TAF
KGFK 140520Z 1406/1506 VRB03KT P6SM SCT110
     FM141300 06005KT P6SM BKN070
     FM142100 01009KT P6SM OVC045
     FM150100 34006KT P6SM BKN080=

USA.gov is the U.S. government's official web portal to all federal, state and local government web resources and services.